Time;durP1;ratioP1;P1;durP2;ratioP2;P2;SDS_P1;SDS_P2;PMS_P1;PMS_P2;Temp;Humidity;BMP_temperature;BMP_pressure;BME280_temperature;BME280_humidity;BME280_pressure;Samples;Min_cycle;Max_cycle;Signal;HPM_P1;HPM_P2
2022/12/05 00:01:15;;;;;;;;;;;;;;;;;;5066608;28;20302;-61
2022/12/05 00:03:41;;;;;;;;;;;;;;;;;;5065922;28;19929;-61
2022/12/05 00:06:07;;;;;;;;;;;;;;;;;;5065868;28;20429;-61
2022/12/05 00:08:33;;;;;;;;;;;;;;;;;;5066886;28;20195;-61
2022/12/05 00:10:59;;;;;;;;;;;;;;;;;;5066491;28;19928;-62
2022/12/05 00:13:25;;;;;;;;;;;;;;;;;;5066148;28;19920;-61
2022/12/05 00:15:51;;;;;;;;;;;;;;;;;;5066485;28;19920;-60
2022/12/05 00:18:17;;;;;;;;;;;;;;;;;;5066582;28;19936;-61
2022/12/05 00:20:43;;;;;;;;;;;;;;;;;;5065983;28;19920;-61
2022/12/05 00:23:09;;;;;;;;;;;;;;;;;;5066766;28;19973;-61
2022/12/05 00:25:35;;;;;;;;;;;;;;;;;;5066655;28;19924;-60
2022/12/05 00:28:00;;;;;;;;;;;;;;;;;;5065533;28;20318;-61
2022/12/05 00:30:26;;;;;;;14.95;10.10;;;;;;;;;;5066436;28;20001;-61
2022/12/05 00:32:52;;;;;;;14.45;10.52;;;;;;;;;;5065340;28;20048;-61
2022/12/05 00:35:19;;;;;;;17.75;10.77;;;;;;;;;;5064870;28;20320;-61
2022/12/05 00:37:44;;;;;;;17.40;10.95;;;;;;;;;;5065305;28;20047;-61
2022/12/05 00:40:11;;;;;;;18.40;11.98;;;;;;;;;;5065467;28;20041;-61
2022/12/05 00:42:37;;;;;;;18.17;12.38;;;;;;;;;;5064695;28;20503;-60
2022/12/05 00:45:03;;;;;;;15.98;11.68;;;;;;;;;;5065229;28;20056;-61
2022/12/05 00:47:29;;;;;;;19.15;12.10;;;;;;;;;;5065826;28;20966;-61
2022/12/05 00:49:54;;;;;;;17.08;12.50;;;;;;;;;;5063089;28;20119;-61
2022/12/05 00:52:20;;;;;;;17.48;12.50;;;;;;;;;;5064634;28;20423;-61
2022/12/05 00:54:46;;;;;;;16.95;11.35;;;;;;;;;;5065201;28;20098;-61
2022/12/05 00:57:12;;;;;;;17.67;11.85;;;;;;;;;;5063282;28;20076;-61
2022/12/05 00:59:39;;;;;;;16.42;11.07;;;;;;;;;;5065815;28;20544;-61
2022/12/05 01:02:05;;;;;;;17.98;12.18;;;;;;;;;;5064603;28;20043;-61
2022/12/05 01:04:31;;;;;;;12.82;10.00;;;;;;;;;;5064745;28;20041;-61
2022/12/05 01:06:57;;;;;;;15.98;10.63;;;;;;;;;;5065047;28;20102;-61
2022/12/05 01:09:24;;;;;;;16.88;11.00;;;;;;;;;;5063202;28;20298;-61
2022/12/05 01:11:50;;;;;;;17.20;11.45;;;;;;;;;;5064020;28;20047;-61
2022/12/05 01:14:17;;;;;;;14.20;10.63;;;;;;;;;;5063419;28;20122;-61
2022/12/05 01:16:44;;;;;;;16.98;10.88;;;;;;;;;;5063848;28;20068;-61
2022/12/05 01:19:11;;;;;;;18.40;12.27;;;;;;;;;;5063318;28;20051;-61
2022/12/05 01:21:37;;;;;;;13.90;9.68;;;;;;;;;;5065279;28;20479;-60
2022/12/05 01:24:03;;;;;;;13.82;9.70;;;;;;;;;;5063919;28;20089;-60
2022/12/05 01:26:29;;;;;;;13.55;9.23;;;;;;;;;;5064501;28;20497;-60
2022/12/05 01:28:55;;;;;;;11.75;8.05;;;;;;;;;;5064347;28;20822;-60
2022/12/05 01:31:24;;;;;;;12.77;9.43;;;;;;;;;;5061862;28;20036;-60
2022/12/05 01:33:51;;;;;;;14.65;10.20;;;;;;;;;;5064546;28;20127;-60
2022/12/05 01:36:17;;;;;;;12.77;8.70;;;;;;;;;;5064653;28;20123;-60
2022/12/05 01:38:43;;;;;;;12.43;8.63;;;;;;;;;;5063548;28;20044;-60
2022/12/05 01:41:13;;;;;;;11.02;8.15;;;;;;;;;;5064583;28;20796;-60
2022/12/05 01:43:57;;;;;;;11.10;8.55;;;;;;;;;;5065082;28;20044;-60
2022/12/05 01:46:24;;;;;;;12.73;8.07;;;;;;;;;;5062914;28;20040;-60
2022/12/05 01:48:51;;;;;;;10.82;7.85;;;;;;;;;;5063901;28;20032;-60
2022/12/05 01:51:18;;;;;;;11.85;9.07;;;;;;;;;;5063520;28;20045;-60
2022/12/05 01:53:44;;;;;;;11.95;8.55;;;;;;;;;;5064006;28;20037;-60
2022/12/05 01:56:10;;;;;;;9.75;7.50;;;;;;;;;;5063625;28;20048;-62
2022/12/05 01:58:37;;;;;;;10.05;8.32;;;;;;;;;;5061551;28;20102;-62
2022/12/05 02:01:03;;;;;;;12.00;7.78;;;;;;;;;;5063743;28;20036;-62
2022/12/05 02:03:29;;;;;;;9.32;7.65;;;;;;;;;;5064365;28;20041;-61
2022/12/05 02:05:56;;;;;;;10.10;7.93;;;;;;;;;;5062969;28;20119;-62
2022/12/05 02:08:23;;;;;;;8.25;5.82;;;;;;;;;;5059972;28;20036;-62
2022/12/05 02:10:51;;;;;;;5.95;5.35;;;;;;;;;;5064526;28;20118;-62
2022/12/05 02:13:32;;;;;;;9.30;6.05;;;;;;;;;;5063082;28;19924;-62
2022/12/05 02:16:04;;;;;;;8.75;6.00;;;;;;;;;;5063679;28;20040;-62
2022/12/05 02:18:33;;;;;;;7.00;6.30;;;;;;;;;;5063776;28;20127;-62
2022/12/05 02:20:59;;;;;;;7.57;6.07;;;;;;;;;;5063125;28;20037;-62
2022/12/05 02:23:34;;;;;;;8.88;7.25;;;;;;;;;;5064540;28;20398;-62
2022/12/05 02:26:10;;;;;;;9.60;7.25;;;;;;;;;;5065667;28;20194;-62
2022/12/05 02:28:55;;;;;;;9.05;6.60;;;;;;;;;;5066741;28;20438;-62
2022/12/05 02:31:47;;;;;;;9.93;7.65;;;;;;;;;;5068095;28;20041;-62
2022/12/05 02:34:19;;;;;;;7.32;5.68;;;;;;;;;;5066128;28;20050;-62
2022/12/05 02:36:51;;;;;;;8.23;6.25;;;;;;;;;;5067800;28;20102;-62
2022/12/05 02:39:21;;;;;;;6.00;5.40;;;;;;;;;;5066332;28;20041;-62
2022/12/05 02:41:54;;;;;;;7.93;6.10;;;;;;;;;;5066213;28;20045;-62
2022/12/05 02:44:19;;;;;;;;;;;;;;;;;;5067876;28;20040;-61
2022/12/05 02:46:46;;;;;;;7.35;5.85;;;;;;;;;;5067705;28;20338;-61
2022/12/05 02:49:15;;;;;;;8.18;5.93;;;;;;;;;;5066895;28;20110;-61
2022/12/05 02:51:42;;;;;;;9.75;7.28;;;;;;;;;;5067421;28;20075;-62
2022/12/05 02:54:10;;;;;;;7.03;5.60;;;;;;;;;;5067992;28;20039;-62
2022/12/05 02:56:36;;;;;;;7.38;6.10;;;;;;;;;;5067496;28;20037;-62
2022/12/05 02:59:02;;;;;;;8.60;5.97;;;;;;;;;;5066596;28;20099;-63
2022/12/05 03:01:30;;;;;;;6.22;5.55;;;;;;;;;;5067431;28;20041;-60
2022/12/05 03:03:57;;;;;;;6.80;6.10;;;;;;;;;;5067107;28;20413;-60
2022/12/05 03:06:23;;;;;;;6.80;5.45;;;;;;;;;;5066080;28;20079;-60
2022/12/05 03:08:57;;;;;;;7.13;5.68;;;;;;;;;;5066194;28;20072;-60
2022/12/05 03:11:23;;;;;;;5.93;5.22;;;;;;;;;;5067248;28;20048;-60
2022/12/05 03:13:55;;;;;;;7.07;5.70;;;;;;;;;;5067400;28;20060;-60
2022/12/05 03:16:29;;;;;;;7.32;5.47;;;;;;;;;;5066748;28;20043;-60
2022/12/05 03:18:58;;;;;;;6.07;5.03;;;;;;;;;;5066944;28;20518;-60
2022/12/05 03:21:35;;;;;;;4.95;4.45;;;;;;;;;;5067603;28;20051;-60
2022/12/05 03:24:13;;;;;;;6.03;4.82;;;;;;;;;;5065824;28;20129;-60
2022/12/05 03:26:58;;;;;;;5.50;4.63;;;;;;;;;;5066538;28;20074;-60
2022/12/05 03:29:26;;;;;;;6.20;5.15;;;;;;;;;;5067391;28;20507;-61
2022/12/05 03:32:08;;;;;;;5.60;4.65;;;;;;;;;;5064762;28;20044;-62
2022/12/05 03:34:49;;;;;;;5.38;4.35;;;;;;;;;;5066333;28;20048;-61
2022/12/05 03:37:42;;;;;;;6.35;4.57;;;;;;;;;;5064129;28;20041;-61
2022/12/05 03:40:14;;;;;;;6.20;4.65;;;;;;;;;;5050973;28;20040;-61
2022/12/05 03:42:44;;;;;;;5.78;5.18;;;;;;;;;;5066835;28;20045;-61
2022/12/05 03:45:12;;;;;;;4.82;4.10;;;;;;;;;;5065884;28;20551;-61
2022/12/05 03:47:48;;;;;;;5.07;4.50;;;;;;;;;;5065962;28;20044;-61
2022/12/05 03:50:26;;;;;;;7.20;4.47;;;;;;;;;;5066383;28;20044;-61
2022/12/05 03:53:18;;;;;;;5.55;4.20;;;;;;;;;;5063731;28;20052;-61
2022/12/05 03:55:46;;;;;;;5.68;4.38;;;;;;;;;;5063746;28;20052;-61
2022/12/05 03:58:17;;;;;;;6.80;3.92;;;;;;;;;;5065514;28;20888;-61
2022/12/05 04:00:46;;;;;;;8.95;5.35;;;;;;;;;;5065846;28;20074;-61
2022/12/05 04:03:18;;;;;;;5.68;4.13;;;;;;;;;;5066161;28;20546;-61
2022/12/05 04:05:46;;;;;;;5.60;5.05;;;;;;;;;;5065868;28;20051;-62
2022/12/05 04:08:35;;;;;;;6.30;4.68;;;;;;;;;;5066576;28;20047;-62
2022/12/05 04:11:04;;;;;;;7.20;4.75;;;;;;;;;;5061576;28;20519;-62
2022/12/05 04:13:40;;;;;;;6.63;5.00;;;;;;;;;;5065209;28;20051;-60
2022/12/05 04:18:56;;;;;;;5.97;4.50;;;;;;;;;;5066060;28;20036;-61
2022/12/05 04:21:37;;;;;;;6.15;5.15;;;;;;;;;;5065865;28;20525;-61
2022/12/05 04:26:52;;;;;;;6.10;5.18;;;;;;;;;;5063973;28;20483;-61
2022/12/05 04:29:23;;;;;;;7.38;5.40;;;;;;;;;;5065859;28;20055;-61
2022/12/05 04:31:52;;;;;;;7.80;5.25;;;;;;;;;;5065692;28;20048;-61
2022/12/05 04:34:19;;;;;;;6.97;4.95;;;;;;;;;;5065763;28;20036;-61
2022/12/05 04:36:56;;;;;;;8.50;5.90;;;;;;;;;;5062823;28;20037;-61
2022/12/05 04:39:37;;;;;;;8.93;5.85;;;;;;;;;;5066222;28;20079;-61
2022/12/05 04:42:05;;;;;;;6.28;4.90;;;;;;;;;;5065133;28;20056;-61
2022/12/05 04:44:37;;;;;;;6.53;5.00;;;;;;;;;;5063155;28;20121;-61
2022/12/05 04:47:05;;;;;;;8.85;5.63;;;;;;;;;;5064996;28;20039;-61
2022/12/05 04:49:32;;;;;;;5.95;4.47;;;;;;;;;;5063227;28;20042;-61
2022/12/05 04:52:01;;;;;;;5.95;4.78;;;;;;;;;;5065490;28;20398;-61
2022/12/05 04:54:28;;;;;;;9.20;5.90;;;;;;;;;;5065054;28;20886;-61
2022/12/05 04:56:58;;;;;;;6.55;5.55;;;;;;;;;;5065670;28;20044;-60
2022/12/05 04:59:24;;;;;;;6.82;5.85;;;;;;;;;;5069164;28;20122;-61
2022/12/05 05:01:54;;;;;;;8.25;5.40;;;;;;;;;;5068239;28;20041;-61
2022/12/05 05:04:22;;;;;;;7.80;4.97;;;;;;;;;;5068740;28;20033;-61
2022/12/05 05:06:48;;;;;;;5.72;4.78;;;;;;;;;;5065486;28;20040;-61
2022/12/05 05:09:14;;;;;;;8.20;6.35;;;;;;;;;;5063114;28;20037;-61
2022/12/05 05:11:40;;;;;;;8.95;6.15;;;;;;;;;;5065180;28;20384;-61
2022/12/05 05:14:06;;;;;;;6.18;5.20;;;;;;;;;;5065016;28;20052;-61
2022/12/05 05:16:34;;;;;;;6.53;5.40;;;;;;;;;;5064057;28;20043;-61
2022/12/05 05:19:00;;;;;;;7.57;5.60;;;;;;;;;;5064485;28;20044;-61
2022/12/05 05:21:27;;;;;;;5.85;5.28;;;;;;;;;;5065464;28;20044;-61
2022/12/05 05:23:54;;;;;;;6.55;4.93;;;;;;;;;;5067720;28;20071;-61
2022/12/05 05:26:21;;;;;;;5.55;4.85;;;;;;;;;;5063499;28;20698;-61
2022/12/05 05:28:48;;;;;;;9.68;5.57;;;;;;;;;;5061433;28;20082;-61
2022/12/05 05:31:15;;;;;;;5.28;4.78;;;;;;;;;;5063139;28;20037;-60
2022/12/05 05:33:41;;;;;;;8.63;6.55;;;;;;;;;;5065220;28;20040;-61
2022/12/05 05:36:09;;;;;;;7.38;5.70;;;;;;;;;;5065159;28;20114;-61
2022/12/05 05:38:36;;;;;;;8.88;5.55;;;;;;;;;;5064556;28;20094;-61
2022/12/05 05:41:02;;;;;;;7.80;5.40;;;;;;;;;;5064768;28;20032;-61
2022/12/05 05:43:28;;;;;;;8.88;5.97;;;;;;;;;;5061941;28;20182;-61
2022/12/05 05:45:54;;;;;;;7.83;5.67;;;;;;;;;;5064556;28;20032;-61
2022/12/05 05:48:20;;;;;;;7.53;5.65;;;;;;;;;;5064824;28;20044;-61
2022/12/05 05:50:45;;;;;;;7.32;5.47;;;;;;;;;;5064011;28;20041;-61
2022/12/05 05:53:11;;;;;;;6.53;4.70;;;;;;;;;;5063727;28;20094;-61
2022/12/05 05:55:40;;;;;;;6.07;5.38;;;;;;;;;;5064884;28;20123;-61
2022/12/05 05:58:07;;;;;;;9.25;5.45;;;;;;;;;;5064415;28;20043;-61
2022/12/05 06:00:33;;;;;;;6.38;4.90;;;;;;;;;;5068198;28;20048;-61
2022/12/05 06:02:59;;;;;;;8.50;5.43;;;;;;;;;;5064166;28;20147;-61
2022/12/05 06:05:25;;;;;;;7.18;5.18;;;;;;;;;;5063821;28;20055;-61
2022/12/05 06:07:54;;;;;;;5.57;4.75;;;;;;;;;;5064263;28;20479;-60
2022/12/05 06:10:20;;;;;;;6.55;4.60;;;;;;;;;;5063656;28;20056;-61
2022/12/05 06:12:46;;;;;;;5.63;4.78;;;;;;;;;;5063547;28;20056;-61
2022/12/05 06:15:12;;;;;;;6.07;4.57;;;;;;;;;;5063479;28;20573;-61
2022/12/05 06:17:38;;;;;;;6.18;5.00;;;;;;;;;;5064329;28;20050;-61
2022/12/05 06:20:05;;;;;;;6.18;4.85;;;;;;;;;;5063215;28;20098;-61
2022/12/05 06:22:31;;;;;;;7.22;5.00;;;;;;;;;;5063994;28;20557;-61
2022/12/05 06:24:57;;;;;;;7.78;3.95;;;;;;;;;;5064267;28;20158;-61
2022/12/05 06:27:23;;;;;;;6.65;4.45;;;;;;;;;;5063532;28;20049;-61
2022/12/05 06:29:49;;;;;;;7.47;5.07;;;;;;;;;;5063587;28;20048;-61
2022/12/05 06:32:15;;;;;;;5.10;4.30;;;;;;;;;;5063969;28;20418;-61
2022/12/05 06:34:41;;;;;;;4.95;4.03;;;;;;;;;;5065133;28;20048;-61
2022/12/05 06:37:07;;;;;;;5.10;4.45;;;;;;;;;;5064216;28;20714;-61
2022/12/05 06:39:33;;;;;;;5.82;4.15;;;;;;;;;;5063884;28;20446;-61
2022/12/05 06:42:00;;;;;;;5.90;4.78;;;;;;;;;;5062671;28;20040;-61
2022/12/05 06:44:27;;;;;;;7.18;5.00;;;;;;;;;;5064563;28;20052;-61
2022/12/05 06:46:53;;;;;;;8.68;6.07;;;;;;;;;;5061179;28;20556;-61
2022/12/05 06:49:20;;;;;;;6.15;5.55;;;;;;;;;;5063468;28;20567;-63
2022/12/05 06:51:46;;;;;;;5.05;4.38;;;;;;;;;;5060397;28;20372;-61
2022/12/05 06:54:13;;;;;;;7.03;5.13;;;;;;;;;;5062680;28;20052;-61
2022/12/05 06:56:39;;;;;;;6.05;4.57;;;;;;;;;;5063053;28;20418;-61
2022/12/05 06:59:05;;;;;;;6.72;4.88;;;;;;;;;;5068483;28;20045;-61
2022/12/05 07:01:37;;;;;;;8.48;4.50;;;;;;;;;;5062046;28;20036;-61
2022/12/05 07:04:23;;;;;;;5.57;4.10;;;;;;;;;;5063487;28;20084;-61
2022/12/05 07:06:49;;;;;;;7.93;5.30;;;;;;;;;;5063061;28;20613;-61
2022/12/05 07:09:15;;;;;;;10.20;5.53;;;;;;;;;;5062512;28;20070;-61
2022/12/05 07:11:41;;;;;;;6.20;5.28;;;;;;;;;;5066146;28;20052;-61
2022/12/05 07:14:10;;;;;;;7.40;5.95;;;;;;;;;;5066995;28;20743;-61
2022/12/05 07:16:36;;;;;;;13.23;6.35;;;;;;;;;;5066603;28;20169;-62
2022/12/05 07:19:02;;;;;;;8.82;4.82;;;;;;;;;;5066084;28;20636;-61
2022/12/05 07:21:28;;;;;;;7.22;6.07;;;;;;;;;;5067344;28;20646;-61
2022/12/05 07:23:54;;;;;;;7.13;4.93;;;;;;;;;;5064938;28;20123;-61
2022/12/05 07:26:22;;;;;;;7.55;5.18;;;;;;;;;;5067129;28;20040;-61
2022/12/05 07:28:48;;;;;;;7.78;5.50;;;;;;;;;;5067145;28;20051;-61
2022/12/05 07:31:17;;;;;;;10.57;6.18;;;;;;;;;;5064721;28;20509;-61
2022/12/05 07:33:43;;;;;;;9.68;5.65;;;;;;;;;;5067374;28;20037;-61
2022/12/05 07:36:14;;;;;;;10.77;6.47;;;;;;;;;;5066875;28;20048;-61
2022/12/05 07:38:40;;;;;;;8.88;6.18;;;;;;;;;;5066796;28;20076;-61
2022/12/05 07:41:07;;;;;;;6.32;5.03;;;;;;;;;;5067006;28;20040;-61
2022/12/05 07:43:33;;;;;;;8.00;5.28;;;;;;;;;;5066013;28;20064;-61
2022/12/05 07:46:04;;;;;;;9.80;5.35;;;;;;;;;;5066447;28;20044;-61
2022/12/05 07:48:30;;;;;;;8.32;5.78;;;;;;;;;;5065488;28;20086;-61
2022/12/05 07:51:03;;;;;;;7.50;5.25;;;;;;;;;;5066211;28;20053;-63
2022/12/05 07:53:30;;;;;;;6.18;4.80;;;;;;;;;;5066129;28;20519;-61
2022/12/05 07:55:58;;;;;;;7.93;4.88;;;;;;;;;;5066756;28;20032;-62
2022/12/05 07:58:24;;;;;;;10.45;5.15;;;;;;;;;;5066278;28;20528;-61
2022/12/05 08:00:50;;;;;;;7.00;4.57;;;;;;;;;;5064974;28;20040;-61
2022/12/05 08:03:16;;;;;;;8.05;5.03;;;;;;;;;;5070431;28;20067;-61
2022/12/05 08:05:42;;;;;;;7.60;5.43;;;;;;;;;;5066942;28;20044;-61
2022/12/05 08:08:08;;;;;;;6.85;4.65;;;;;;;;;;5066880;28;20111;-61
2022/12/05 08:10:35;;;;;;;10.30;4.05;;;;;;;;;;5067728;28;20052;-61
2022/12/05 08:13:01;;;;;;;9.95;5.05;;;;;;;;;;5066173;28;20384;-61
2022/12/05 08:15:26;;;;;;;7.53;5.75;;;;;;;;;;5065546;28;20491;-61
2022/12/05 08:17:52;;;;;;;6.82;5.40;;;;;;;;;;5068178;28;20044;-61
2022/12/05 08:20:18;;;;;;;5.20;4.40;;;;;;;;;;5066323;28;20040;-61
2022/12/05 08:22:44;;;;;;;7.63;4.45;;;;;;;;;;5070686;28;20079;-61
2022/12/05 08:25:10;;;;;;;6.50;4.35;;;;;;;;;;5065761;28;20054;-62
2022/12/05 08:27:36;;;;;;;11.05;5.25;;;;;;;;;;5067412;28;20041;-62
2022/12/05 08:30:03;;;;;;;10.57;5.03;;;;;;;;;;5066346;28;20114;-61
2022/12/05 08:32:29;;;;;;;10.00;4.85;;;;;;;;;;5066059;28;20904;-61
2022/12/05 08:34:55;;;;;;;7.90;4.68;;;;;;;;;;5099205;28;20048;-61
2022/12/05 08:37:21;;;;;;;9.68;4.30;;;;;;;;;;5066844;28;20048;-61
2022/12/05 08:39:47;;;;;;;8.57;4.90;;;;;;;;;;5066323;28;20499;-61
2022/12/05 08:42:14;;;;;;;13.27;5.55;;;;;;;;;;5066472;28;20041;-62
2022/12/05 08:44:40;;;;;;;8.27;5.07;;;;;;;;;;5066077;28;20048;-61
2022/12/05 08:47:06;;;;;;;8.60;5.65;;;;;;;;;;5062195;28;20044;-62
2022/12/05 08:49:32;;;;;;;8.13;5.03;;;;;;;;;;5067553;28;20063;-61
2022/12/05 08:51:58;;;;;;;11.43;6.20;;;;;;;;;;5065364;28;20037;-61
2022/12/05 08:54:24;;;;;;;10.13;6.05;;;;;;;;;;5065742;28;20067;-61
2022/12/05 08:56:51;;;;;;;11.55;6.13;;;;;;;;;;5069912;28;20451;-57
2022/12/05 08:59:17;;;;;;;9.65;6.13;;;;;;;;;;5065449;28;20033;-57
2022/12/05 09:01:43;;;;;;;8.05;5.90;;;;;;;;;;5064865;28;20046;-57
2022/12/05 09:04:09;;;;;;;9.48;5.45;;;;;;;;;;5065345;28;20045;-57
2022/12/05 09:06:35;;;;;;;8.63;5.90;;;;;;;;;;5065100;28;20072;-59
2022/12/05 09:09:03;;;;;;;12.07;6.88;;;;;;;;;;5063955;28;20044;-60
2022/12/05 09:11:30;;;;;;;11.70;5.80;;;;;;;;;;5064977;28;20878;-60
2022/12/05 09:13:57;;;;;;;9.15;6.25;;;;;;;;;;5063972;28;20492;-60
2022/12/05 09:16:24;;;;;;;7.30;5.97;;;;;;;;;;5064853;28;20040;-59
2022/12/05 09:18:51;;;;;;;8.15;5.00;;;;;;;;;;5065655;28;20552;-60
2022/12/05 09:21:21;;;;;;;9.98;6.47;;;;;;;;;;5065100;28;20048;-60
2022/12/05 09:23:47;;;;;;;8.05;5.70;;;;;;;;;;5065073;28;20472;-60
2022/12/05 09:26:15;;;;;;;8.32;5.85;;;;;;;;;;5061954;28;20044;-59
2022/12/05 09:28:41;;;;;;;13.20;7.40;;;;;;;;;;5060239;28;20490;-59
2022/12/05 09:31:08;;;;;;;10.18;5.88;;;;;;;;;;5065639;28;20071;-59
2022/12/05 09:33:35;;;;;;;11.40;5.78;;;;;;;;;;5096739;28;20234;-59
2022/12/05 09:36:05;;;;;;;7.43;5.15;;;;;;;;;;5061383;28;20144;-59
2022/12/05 09:38:32;;;;;;;13.77;7.13;;;;;;;;;;5061067;28;20487;-59
2022/12/05 09:41:13;;;;;;;10.27;6.47;;;;;;;;;;5064456;28;20109;-59
2022/12/05 09:43:59;;;;;;;9.45;6.18;;;;;;;;;;5064623;28;20451;-59
2022/12/05 09:46:44;;;;;;;8.65;5.88;;;;;;;;;;5097062;28;20049;-59
2022/12/05 09:49:10;;;;;;;9.05;5.95;;;;;;;;;;5065570;28;21477;-59
2022/12/05 09:51:39;;;;;;;9.85;7.13;;;;;;;;;;5063985;28;20086;-60
2022/12/05 09:54:05;;;;;;;9.40;6.20;;;;;;;;;;5065686;28;20083;-58
2022/12/05 09:56:31;;;;;;;10.50;5.93;;;;;;;;;;5063088;28;20518;-58
2022/12/05 09:58:59;;;;;;;11.52;5.82;;;;;;;;;;5067324;28;20033;-58
2022/12/05 10:01:37;;;;;;;9.52;5.68;;;;;;;;;;5064336;28;20040;-58
2022/12/05 10:04:16;;;;;;;14.05;6.10;;;;;;;;;;5063269;28;20051;-58
2022/12/05 10:06:50;;;;;;;8.27;5.55;;;;;;;;;;5066731;28;20573;-58
2022/12/05 10:09:39;;;;;;;8.88;5.60;;;;;;;;;;5067824;28;20734;-58
2022/12/05 10:12:05;;;;;;;10.45;6.15;;;;;;;;;;5066467;28;20139;-58
2022/12/05 10:14:50;;;;;;;10.02;5.72;;;;;;;;;;5068269;28;20128;-58
2022/12/05 10:17:20;;;;;;;14.23;6.68;;;;;;;;;;5068303;28;20076;-58
2022/12/05 10:19:47;;;;;;;7.55;5.97;;;;;;;;;;5067632;28;20487;-58
2022/12/05 10:22:15;;;;;;;9.70;6.15;;;;;;;;;;5067632;28;20055;-58
2022/12/05 10:24:46;;;;;;;10.20;6.28;;;;;;;;;;5067904;28;20383;-58
2022/12/05 10:27:18;;;;;;;8.27;6.20;;;;;;;;;;5067802;28;20391;-58
2022/12/05 10:29:53;;;;;;;6.88;5.25;;;;;;;;;;5068663;28;20080;-58
2022/12/05 10:32:21;;;;;;;11.95;6.50;;;;;;;;;;5067899;28;20044;-59
2022/12/05 10:34:50;;;;;;;10.32;6.10;;;;;;;;;;5069192;28;20406;-58
2022/12/05 10:37:20;;;;;;;11.10;6.60;;;;;;;;;;5068686;28;20548;-59
2022/12/05 10:39:47;;;;;;;7.95;6.40;;;;;;;;;;5068419;28;20048;-59
2022/12/05 10:42:18;;;;;;;10.45;6.47;;;;;;;;;;5076210;28;20464;-59
2022/12/05 10:44:44;;;;;;;13.35;7.53;;;;;;;;;;5068236;28;20083;-58
2022/12/05 10:47:10;;;;;;;9.90;6.20;;;;;;;;;;5069143;28;20508;-59
2022/12/05 10:49:37;;;;;;;7.53;6.07;;;;;;;;;;5072071;28;20083;-59
2022/12/05 10:52:04;;;;;;;7.40;5.25;;;;;;;;;;5071528;28;20059;-59
2022/12/05 10:54:33;;;;;;;7.65;5.75;;;;;;;;;;5071438;28;20040;-59
2022/12/05 10:56:59;;;;;;;8.55;6.47;;;;;;;;;;5072277;28;20041;-58
2022/12/05 10:59:26;;;;;;;9.02;6.00;;;;;;;;;;5071681;28;20086;-58
2022/12/05 11:01:54;;;;;;;9.35;5.63;;;;;;;;;;5071969;28;20059;-59
2022/12/05 11:04:31;;;;;;;8.00;5.18;;;;;;;;;;5077005;28;20128;-59
2022/12/05 11:07:01;;;;;;;8.32;5.93;;;;;;;;;;5075607;28;20075;-58
2022/12/05 11:09:29;;;;;;;6.95;5.13;;;;;;;;;;5078277;28;20502;-58
2022/12/05 11:12:05;;;;;;;9.45;5.60;;;;;;;;;;5070817;28;20379;-58
2022/12/05 11:14:33;;;;;;;6.40;4.88;;;;;;;;;;5066183;28;20049;-58
2022/12/05 11:17:00;;;;;;;8.18;5.57;;;;;;;;;;5068545;28;20041;-58
2022/12/05 11:19:38;;;;;;;6.45;4.70;;;;;;;;;;5062279;28;20729;-58
2022/12/05 11:22:06;;;;;;;8.85;6.15;;;;;;;;;;5066963;28;20048;-58
2022/12/05 11:24:36;;;;;;;7.95;4.57;;;;;;;;;;5077685;28;20075;-58
2022/12/05 11:27:15;;;;;;;7.05;4.88;;;;;;;;;;5078542;28;20661;-58
2022/12/05 11:29:41;;;;;;;7.05;3.95;;;;;;;;;;5065125;28;20597;-58
2022/12/05 11:32:18;;;;;;;4.55;3.88;;;;;;;;;;5065249;28;20044;-58
2022/12/05 11:34:52;;;;;;;6.63;4.43;;;;;;;;;;5075841;28;20074;-57
2022/12/05 11:37:22;;;;;;;4.97;3.80;;;;;;;;;;5090004;28;20386;-59
2022/12/05 11:39:48;;;;;;;11.10;5.10;;;;;;;;;;5078881;28;20040;-58
2022/12/05 11:42:29;;;;;;;5.72;4.53;;;;;;;;;;5056585;28;20455;-59
2022/12/05 11:45:00;;;;;;;4.45;3.30;;;;;;;;;;5070745;28;20048;-58
2022/12/05 11:47:43;;;;;;;5.60;4.43;;;;;;;;;;5082881;28;20043;-58
2022/12/05 11:50:21;;;;;;;6.35;4.20;;;;;;;;;;5066824;28;20044;-58
2022/12/05 11:52:53;;;;;;;7.35;3.95;;;;;;;;;;5069819;28;20084;-58
2022/12/05 11:55:51;;;;;;;4.60;4.15;;;;;;;;;;5063369;28;20039;-59
2022/12/05 11:58:36;;;;;;;4.75;3.45;;;;;;;;;;5052562;28;20045;-58
2022/12/05 12:01:09;;;;;;;4.82;3.25;;;;;;;;;;5067819;28;20131;-56
2022/12/05 12:03:47;;;;;;;4.35;2.97;;;;;;;;;;5067454;28;20040;-58
2022/12/05 12:06:20;;;;;;;5.40;3.42;;;;;;;;;;5069346;28;20076;-61
2022/12/05 12:09:04;;;;;;;4.40;3.10;;;;;;;;;;5067883;28;20535;-57
2022/12/05 12:11:40;;;;;;;4.68;2.70;;;;;;;;;;5060526;28;20040;-56
2022/12/05 12:14:18;;;;;;;3.65;2.75;;;;;;;;;;5067185;28;20057;-57
2022/12/05 12:16:47;;;;;;;6.15;3.35;;;;;;;;;;5067876;28;20471;-57
2022/12/05 12:19:25;;;;;;;3.45;2.97;;;;;;;;;;5065940;28;20098;-56
2022/12/05 12:21:51;;;;;;;3.47;2.80;;;;;;;;;;5067449;28;20082;-56
2022/12/05 12:24:31;;;;;;;3.67;2.67;;;;;;;;;;5066293;28;20044;-56
2022/12/05 12:27:13;;;;;;;3.90;3.03;;;;;;;;;;5065318;28;20082;-56
2022/12/05 12:29:55;;;;;;;2.85;2.50;;;;;;;;;;5062402;28;20056;-56
2022/12/05 12:32:29;;;;;;;3.95;3.20;;;;;;;;;;5070615;28;20048;-57
2022/12/05 12:35:04;;;;;;;3.60;2.17;;;;;;;;;;5066963;28;20045;-55
2022/12/05 12:37:39;;;;;;;4.30;2.72;;;;;;;;;;5067328;28;20109;-56
2022/12/05 12:40:14;;;;;;;3.83;2.30;;;;;;;;;;5067110;28;20060;-57
2022/12/05 12:42:52;;;;;;;2.92;1.77;;;;;;;;;;5067618;28;20075;-57
2022/12/05 12:45:19;;;;;;;3.28;1.95;;;;;;;;;;5065879;28;20036;-56
2022/12/05 12:48:04;;;;;;;1.58;1.48;;;;;;;;;;5063497;28;20116;-57
2022/12/05 12:50:34;;;;;;;3.92;2.10;;;;;;;;;;5060303;28;20086;-56
2022/12/05 12:53:00;;;;;;;3.85;2.22;;;;;;;;;;5065332;28;20049;-56
2022/12/05 12:55:45;;;;;;;3.92;1.92;;;;;;;;;;5065170;28;20052;-56
2022/12/05 12:58:14;;;;;;;3.55;2.33;;;;;;;;;;5064200;28;20045;-56
2022/12/05 13:00:52;;;;;;;6.28;3.00;;;;;;;;;;5061700;28;20139;-56
2022/12/05 13:03:35;;;;;;;2.47;1.52;;;;;;;;;;5064572;28;20498;-57
2022/12/05 13:06:04;;;;;;;7.32;2.42;;;;;;;;;;5064040;28;20049;-57
2022/12/05 13:08:33;;;;;;;3.95;2.00;;;;;;;;;;5064603;28;20046;-57
2022/12/05 13:11:01;;;;;;;4.88;1.95;;;;;;;;;;5064818;28;20044;-57
2022/12/05 13:13:35;;;;;;;2.33;1.98;;;;;;;;;;5064038;28;20512;-56
2022/12/05 13:16:02;;;;;;;3.33;2.03;;;;;;;;;;5063941;28;20601;-56
2022/12/05 13:18:28;;;;;;;2.45;1.77;;;;;;;;;;5069335;28;20119;-58
2022/12/05 13:20:55;;;;;;;3.33;2.53;;;;;;;;;;5067069;28;20047;-57
2022/12/05 13:23:23;;;;;;;3.10;2.00;;;;;;;;;;5063668;28;20052;-58
2022/12/05 13:25:50;;;;;;;3.25;2.20;;;;;;;;;;5066270;28;20037;-57
2022/12/05 13:28:34;;;;;;;2.08;1.67;;;;;;;;;;5064299;28;20071;-58
2022/12/05 13:31:02;;;;;;;2.50;1.90;;;;;;;;;;5066526;28;20131;-58
2022/12/05 13:33:33;;;;;;;4.53;2.47;;;;;;;;;;5077415;28;20048;-58
2022/12/05 13:44:49;;;;;;;3.15;2.17;;;;;;;;;;5066042;28;20052;-58
2022/12/05 13:47:34;;;;;;;3.45;2.08;;;;;;;;;;5065203;28;22395;-58
2022/12/05 13:50:03;;;;;;;4.18;2.70;;;;;;;;;;5062323;28;20131;-58
2022/12/05 13:52:30;;;;;;;3.58;2.38;;;;;;;;;;5071801;28;20040;-57
2022/12/05 13:55:00;;;;;;;2.47;2.17;;;;;;;;;;5071593;28;20098;-58
2022/12/05 13:57:38;;;;;;;3.53;2.63;;;;;;;;;;5071450;28;20526;-58
2022/12/05 14:00:05;;;;;;;5.43;2.30;;;;;;;;;;5070834;28;20044;-57
2022/12/05 14:02:46;;;;;;;4.55;2.35;;;;;;;;;;5067377;28;20140;-58
2022/12/05 14:05:17;;;;;;;2.70;2.00;;;;;;;;;;5064263;28;20040;-58
2022/12/05 14:07:53;;;;;;;4.20;2.38;;;;;;;;;;5070194;28;20052;-58
2022/12/05 14:10:28;;;;;;;3.60;2.13;;;;;;;;;;5070366;28;20048;-58
2022/12/05 14:12:57;;;;;;;3.70;1.70;;;;;;;;;;5070884;28;20067;-58
2022/12/05 14:15:24;;;;;;;2.50;2.00;;;;;;;;;;5062942;28;20605;-57
2022/12/05 14:17:55;;;;;;;5.25;2.13;;;;;;;;;;5097609;28;20167;-58
2022/12/05 14:20:26;;;;;;;6.28;2.55;;;;;;;;;;5075964;28;20047;-58
2022/12/05 14:22:55;;;;;;;2.58;2.05;;;;;;;;;;5074542;28;20044;-58
2022/12/05 14:25:24;;;;;;;3.78;2.38;;;;;;;;;;5068532;28;20045;-58
2022/12/05 14:28:09;;;;;;;3.22;1.98;;;;;;;;;;5061631;28;20400;-58
2022/12/05 14:30:45;;;;;;;4.95;2.22;;;;;;;;;;5060290;28;20076;-58
2022/12/05 14:33:16;;;;;;;4.22;2.20;;;;;;;;;;5064872;28;20583;-56
2022/12/05 14:35:47;;;;;;;3.83;2.80;;;;;;;;;;5065699;28;20075;-57
2022/12/05 14:38:27;;;;;;;3.67;2.00;;;;;;;;;;5058624;28;20048;-58
2022/12/05 14:40:53;;;;;;;4.10;2.70;;;;;;;;;;5066381;28;20053;-58
2022/12/05 14:43:27;;;;;;;5.60;2.50;;;;;;;;;;5065272;28;19942;-58
2022/12/05 14:45:53;;;;;;;4.40;2.25;;;;;;;;;;5064656;28;20155;-58
2022/12/05 14:48:19;;;;;;;3.60;1.75;;;;;;;;;;5065071;28;20127;-58
2022/12/05 14:50:45;;;;;;;;;;;;;;;;;;5058977;28;19947;-58
2022/12/05 14:53:11;;;;;;;;;;;;;;;;;;5051703;28;20019;-58
2022/12/05 14:55:37;;;;;;;;;;;;;;;;;;5079193;28;20341;-57
2022/12/05 14:58:03;;;;;;;3.22;2.10;;;;;;;;;;5064208;28;20066;-58
2022/12/05 15:00:29;;;;;;;2.72;2.00;;;;;;;;;;5064426;28;20044;-58
2022/12/05 15:02:56;;;;;;;3.45;2.55;;;;;;;;;;5065200;28;20048;-58
2022/12/05 15:05:31;;;;;;;3.30;2.13;;;;;;;;;;5064552;28;20446;-58
2022/12/05 15:07:59;;;;;;;2.85;1.98;;;;;;;;;;5065053;28;20049;-58
2022/12/05 15:10:28;;;;;;;4.97;2.65;;;;;;;;;;5065592;28;20049;-58
2022/12/05 15:12:59;;;;;;;2.55;2.35;;;;;;;;;;5065738;28;20052;-58